createdAt,value
2023-02-03T00:01:16.632Z,8.9625
2023-02-03T00:04:16.273Z,7.625
2023-02-03T00:07:16.211Z,9.3125
2023-02-03T00:11:15.615Z,6.699999999999999
2023-02-03T00:14:15.885Z,6.1875
2023-02-03T00:17:15.942Z,6.7875
2023-02-03T00:21:16.527Z,9.425
2023-02-03T00:24:16.556Z,5.375
2023-02-03T00:27:16.390Z,5.3375
2023-02-03T00:31:17.943Z,6.0625
2023-02-03T00:34:16.094Z,9.8125
2023-02-03T00:37:16.191Z,5.1875
2023-02-03T00:41:16.277Z,8.524999999999999
2023-02-03T00:44:16.497Z,5.7625
2023-02-03T00:47:16.412Z,10.0125
2023-02-03T00:51:16.461Z,8.0125
2023-02-03T00:54:17.071Z,6.987500000000001
2023-02-03T00:57:16.982Z,7.9875
2023-02-03T01:01:16.327Z,6.85
2023-02-03T01:04:16.616Z,11.0125
2023-02-03T01:07:16.510Z,6.9
2023-02-03T01:11:19.246Z,8.425
2023-02-03T01:14:16.126Z,6.375
2023-02-03T01:17:15.944Z,6.3374999999999995
2023-02-03T01:21:18.452Z,8.625
2023-02-03T01:24:16.452Z,4.275
2023-02-03T01:27:16.350Z,6.15
2023-02-03T01:31:19.190Z,5.125
2023-02-03T01:34:17.542Z,7.025
2023-02-03T01:37:18.113Z,7.375
2023-02-03T01:41:18.855Z,4.5625
2023-02-03T01:44:39.117Z,5.4125
2023-02-03T01:47:24.074Z,8.7875
2023-02-03T01:51:17.017Z,7.0874999999999995
2023-02-03T01:54:20.479Z,6.6125
2023-02-03T01:57:21.389Z,13.25
2023-02-03T02:01:18.560Z,8.675
2023-02-03T02:04:16.469Z,6.1875
2023-02-03T02:07:16.267Z,9.9875
2023-02-03T02:11:16.346Z,11.5125
2023-02-03T02:14:16.963Z,9.649999999999999
2023-02-03T02:17:33.902Z,10.225
2023-02-03T02:21:50.719Z,7.237499999999999
2023-02-03T02:24:54.920Z,9.275
2023-02-03T02:27:30.744Z,4.075
2023-02-03T02:32:27.636Z,8.3375
2023-02-03T02:34:23.951Z,6.449999999999999
2023-02-03T02:37:25.428Z,5.375
2023-02-03T02:41:23.192Z,5.475
2023-02-03T02:44:22.739Z,8.325
2023-02-03T02:47:19.250Z,6.15
2023-02-03T02:51:17.384Z,4.175
2023-02-03T02:54:20.421Z,8.612499999999999
2023-02-03T02:57:19.166Z,5.7125
2023-02-03T03:01:16.884Z,7.199999999999999
2023-02-03T03:04:21.295Z,11.35
2023-02-03T03:07:22.177Z,7.675
2023-02-03T03:11:17.672Z,12.125
2023-02-03T03:14:19.866Z,8.4375
2023-02-03T03:17:23.447Z,7.3375
2023-02-03T03:21:21.764Z,5.5
2023-02-03T03:24:21.221Z,6.85
2023-02-03T03:27:22.469Z,6.887499999999999
2023-02-03T03:31:18.308Z,8.4625
2023-02-03T03:34:17.388Z,9.7375
2023-02-03T03:37:22.906Z,10.587499999999999
2023-02-03T03:41:23.916Z,6.9375
2023-02-03T03:44:19.060Z,10.6375
2023-02-03T03:47:23.238Z,5.9624999999999995
2023-02-03T03:51:21.433Z,10.6
2023-02-03T03:54:19.622Z,4.1625
2023-02-03T03:57:21.086Z,10.024999999999999
2023-02-03T04:01:17.228Z,7.075
2023-02-03T04:04:17.038Z,16.4375
2023-02-03T04:07:16.248Z,7.699999999999999
2023-02-03T04:12:01.274Z,10.474999999999998
2023-02-03T04:14:16.030Z,9.55
2023-02-03T04:17:16.169Z,8.2625
2023-02-03T04:21:15.971Z,4.8375
2023-02-03T04:24:16.366Z,8.4375
2023-02-03T04:27:16.169Z,6.8
2023-02-03T04:31:16.442Z,9.0875
2023-02-03T04:34:16.426Z,7.512499999999999
2023-02-03T04:37:16.491Z,8.15
2023-02-03T04:41:16.145Z,11.0875
2023-02-03T04:44:16.045Z,10.3
2023-02-03T04:47:17.223Z,10.9375
2023-02-03T04:51:16.383Z,7.9125
2023-02-03T04:54:16.798Z,6.9750000000000005
2023-02-03T04:57:16.826Z,4.25
2023-02-03T05:01:16.193Z,8.675
2023-02-03T05:04:16.697Z,3.6374999999999997
2023-02-03T05:07:16.727Z,4.9
2023-02-03T05:11:16.087Z,3.5374999999999996
2023-02-03T05:14:16.565Z,8.3625
2023-02-03T05:17:16.423Z,6.3875
2023-02-03T05:21:16.585Z,4.675
2023-02-03T05:24:16.792Z,4.199999999999999
2023-02-03T05:27:16.752Z,6.9
2023-02-03T05:31:16.154Z,7.15
2023-02-03T05:34:16.358Z,8.787499999999998
2023-02-03T05:37:16.295Z,4.9625
2023-02-03T05:42:21.486Z,4.8375
2023-02-03T05:44:16.434Z,3.4
2023-02-03T05:47:16.363Z,5.2625
2023-02-03T05:51:16.040Z,4.75
2023-02-03T05:54:16.444Z,5.449999999999999
2023-02-03T05:57:18.198Z,7.0375
2023-02-03T06:01:15.927Z,6.2875
2023-02-03T06:04:16.580Z,5.262499999999999
2023-02-03T06:07:16.187Z,6.6875
2023-02-03T06:11:16.517Z,5.800000000000001
2023-02-03T06:14:16.838Z,1.9000000000000001
2023-02-03T06:17:16.773Z,3.125
2023-02-03T06:21:16.039Z,4.325
2023-02-03T06:24:16.409Z,4.5125
2023-02-03T06:27:16.478Z,5.574999999999999
2023-02-03T06:31:15.790Z,6.125
2023-02-03T06:34:15.912Z,5.574999999999999
2023-02-03T06:37:16.467Z,5.8375
2023-02-03T06:41:16.300Z,10.55
2023-02-03T06:44:17.105Z,3
2023-02-03T06:47:16.702Z,3.3625
2023-02-03T06:51:16.408Z,15.799999999999999
2023-02-03T06:54:16.716Z,6.3375
2023-02-03T06:57:16.640Z,4.35
2023-02-03T07:01:16.719Z,4.9375
2023-02-03T07:04:17.036Z,4.5625
2023-02-03T07:07:17.111Z,3.5625
2023-02-03T07:11:15.671Z,4.2875
2023-02-03T07:14:16.227Z,8.0125
2023-02-03T07:17:16.109Z,15.412500000000001
2023-02-03T07:21:16.567Z,3.7750000000000004
2023-02-03T07:24:16.601Z,6.4625
2023-02-03T07:27:16.418Z,6.7875
2023-02-03T07:31:15.772Z,4.3875
2023-02-03T07:34:16.122Z,9.5
2023-02-03T07:37:16.097Z,4.8125
2023-02-03T07:41:18.072Z,6.125
2023-02-03T07:44:16.419Z,4.6
2023-02-03T07:47:16.488Z,6.55
2023-02-03T07:51:16.538Z,5.15
2023-02-03T07:54:17.014Z,5.9375
2023-02-03T07:57:16.665Z,10.05
2023-02-03T08:01:16.344Z,5.25
2023-02-03T08:04:17.950Z,10.15
2023-02-03T08:07:16.237Z,11.175
2023-02-03T08:11:16.113Z,7.25
2023-02-03T08:14:16.497Z,6.275
2023-02-03T08:17:16.513Z,5.5249999999999995
2023-02-03T08:21:16.249Z,7.800000000000001
2023-02-03T08:24:16.653Z,5.625
2023-02-03T08:27:18.447Z,4.6875
2023-02-03T08:31:16.889Z,6.6375
2023-02-03T08:34:16.997Z,7.275
2023-02-03T08:37:19.715Z,7.874999999999999
2023-02-03T08:41:17.600Z,7.4125
2023-02-03T08:44:18.643Z,5.699999999999999
2023-02-03T08:47:17.988Z,3.625
2023-02-03T08:51:17.091Z,8.3625
2023-02-03T08:54:15.987Z,8.274999999999999
2023-02-03T08:57:16.216Z,7.5
2023-02-03T09:01:16.065Z,9.799999999999999
2023-02-03T09:04:19.610Z,9.8375
2023-02-03T09:07:17.558Z,13.1375
2023-02-03T09:11:17.780Z,16.1625
2023-02-03T09:14:16.171Z,20.975
2023-02-03T09:17:16.260Z,12.137500000000001
2023-02-03T09:21:32.061Z,9.35
2023-02-03T09:24:17.406Z,17.4625
2023-02-03T09:27:16.468Z,12.1625
2023-02-03T09:31:18.012Z,9.3125
2023-02-03T09:34:17.176Z,13.0625
2023-02-03T09:37:16.893Z,13.6375
2023-02-03T09:41:30.135Z,16.25
2023-02-03T09:44:24.288Z,15.8375
2023-02-03T09:47:21.771Z,15.9
2023-02-03T09:51:21.791Z,13.7375
2023-02-03T09:54:21.088Z,11.85
2023-02-03T09:57:21.562Z,14.675
2023-02-03T10:01:18.346Z,15.075000000000001
2023-02-03T10:04:26.719Z,10.0875
2023-02-03T10:07:25.873Z,13.5125
2023-02-03T10:11:30.439Z,14.525
2023-02-03T10:14:31.070Z,16.25
2023-02-03T10:17:27.679Z,14.787499999999998
2023-02-03T10:21:27.453Z,15.9375
2023-02-03T10:24:23.620Z,16.1375
2023-02-03T10:27:20.525Z,15.125
2023-02-03T10:31:20.927Z,13.4875
2023-02-03T10:34:17.285Z,15.149999999999999
2023-02-03T10:37:26.740Z,16.35
2023-02-03T10:41:17.090Z,13.3625
2023-02-03T10:44:16.259Z,13.2625
2023-02-03T10:47:23.254Z,14.0625
2023-02-03T10:51:21.676Z,16.125
2023-02-03T10:54:33.613Z,13.575000000000001
2023-02-03T10:57:16.925Z,14.25
2023-02-03T11:01:19.005Z,12.2625
2023-02-03T11:04:25.778Z,11.425
2023-02-03T11:07:26.051Z,12.100000000000001
2023-02-03T11:11:24.841Z,11.5125
2023-02-03T11:14:16.631Z,10.524999999999999
2023-02-03T11:17:18.662Z,11.475
2023-02-03T11:21:19.248Z,8.775
2023-02-03T11:24:20.266Z,7.762499999999999
2023-02-03T11:27:18.896Z,10.924999999999999
2023-02-03T11:31:20.141Z,8.9375
2023-02-03T11:34:18.814Z,10.6125
2023-02-03T11:37:36.272Z,7.7124999999999995
2023-02-03T11:41:18.226Z,12.875
2023-02-03T11:44:20.064Z,8.65
2023-02-03T11:47:17.967Z,11.9125
2023-02-03T11:51:31.449Z,7.825
2023-02-03T11:54:29.716Z,2.9250000000000003
2023-02-03T11:57:30.898Z,4.3375
2023-02-03T12:01:28.610Z,8.7625
2023-02-03T12:05:19.931Z,6.7250000000000005
2023-02-03T12:07:46.508Z,5.7625
2023-02-03T12:11:28.316Z,7.0249999999999995
2023-02-03T12:14:33.447Z,7.7375
2023-02-03T12:17:28.504Z,8.3625
2023-02-03T12:21:34.447Z,15.075
2023-02-03T12:24:33.629Z,7.875
2023-02-03T12:27:27.927Z,10.262500000000001
2023-02-03T12:31:24.905Z,12
2023-02-03T12:34:22.601Z,11.475000000000001
2023-02-03T12:37:22.533Z,14.3875
2023-02-03T12:41:21.048Z,9.95
2023-02-03T12:44:21.201Z,12.425
2023-02-03T12:47:27.124Z,11.675
2023-02-03T12:51:23.893Z,10.675
2023-02-03T12:54:34.039Z,11.4875
2023-02-03T12:57:22.315Z,9.100000000000001
2023-02-03T13:01:21.830Z,9.425
2023-02-03T13:04:27.021Z,9.5
2023-02-03T13:07:23.568Z,9
2023-02-03T13:11:23.366Z,13.975000000000001
2023-02-03T13:14:21.640Z,9
2023-02-03T13:17:21.484Z,9.7625
2023-02-03T13:21:16.614Z,8.7125
2023-02-03T13:24:17.310Z,6.9875
2023-02-03T13:27:36.174Z,9.024999999999999
2023-02-03T13:31:29.138Z,14.225
2023-02-03T13:34:40.918Z,8.6875
2023-02-03T13:37:47.030Z,5.824999999999999
2023-02-03T13:41:21.930Z,6.550000000000001
2023-02-03T13:44:20.416Z,9.5375
2023-02-03T13:47:21.275Z,5.475
2023-02-03T13:51:19.909Z,11.1125
2023-02-03T13:54:24.755Z,8.5125
2023-02-03T13:57:22.165Z,6.487500000000001
2023-02-03T14:01:48.500Z,11.1125
2023-02-03T14:04:53.960Z,6.2125
2023-02-03T14:07:27.959Z,8.1875
2023-02-03T14:11:50.285Z,10.8875
2023-02-03T14:15:31.649Z,7.625
2023-02-03T14:21:20.165Z,5.5375
2023-02-03T14:24:17.608Z,6.4375
2023-02-03T14:27:20.527Z,8.45
2023-02-03T14:31:20.488Z,9.5
2023-02-03T14:34:16.800Z,11.2
2023-02-03T14:37:20.800Z,7.4625
2023-02-03T14:41:22.481Z,7.4
2023-02-03T14:44:29.665Z,6.325
2023-02-03T14:47:28.088Z,16.5625
2023-02-03T14:51:28.426Z,12.6875
2023-02-03T14:54:39.797Z,10.525
2023-02-03T14:57:31.767Z,6.075
2023-02-03T15:01:26.551Z,7.4625
2023-02-03T15:04:21.375Z,6.4125
2023-02-03T15:07:49.879Z,7.7250000000000005
2023-02-03T15:11:24.287Z,4.5375
2023-02-03T15:14:24.272Z,5.8875
2023-02-03T15:17:22.481Z,12.2375
2023-02-03T15:21:18.565Z,15.275
2023-02-03T15:24:20.780Z,9.0375
2023-02-03T15:27:21.927Z,8
2023-02-03T15:31:21.905Z,7.3625
2023-02-03T15:34:25.880Z,7.1625
2023-02-03T15:37:21.289Z,8.55
2023-02-03T15:41:21.795Z,11.6625
2023-02-03T15:44:26.460Z,9.462499999999999
2023-02-03T15:47:24.981Z,10.375
2023-02-03T15:51:19.943Z,8.35
2023-02-03T15:54:23.095Z,6.5875
2023-02-03T15:57:20.690Z,10.524999999999999
2023-02-03T16:01:21.106Z,6.449999999999999
2023-02-03T16:04:16.701Z,6.775
2023-02-03T16:07:20.158Z,11.2625
2023-02-03T16:11:28.528Z,8.7375
2023-02-03T16:14:32.607Z,11.8625
2023-02-03T16:17:24.507Z,9.4125
2023-02-03T16:21:28.049Z,9.4375
2023-02-03T16:24:34.805Z,17.5125
2023-02-03T16:27:21.251Z,14.637500000000001
2023-02-03T16:51:16.756Z,9.275
2023-02-03T16:54:18.319Z,17.549999999999997
2023-02-03T16:57:17.212Z,34.425
2023-02-03T17:01:16.561Z,15.799999999999999
2023-02-03T17:04:16.630Z,17.8375
2023-02-03T17:07:16.967Z,18.0625
2023-02-03T17:11:18.728Z,19.087500000000002
2023-02-03T17:14:16.708Z,11.9125
2023-02-03T17:17:16.386Z,15.0875
2023-02-03T17:21:21.152Z,14.774999999999999
2023-02-03T17:24:16.828Z,9.9
2023-02-03T17:27:16.778Z,12.5125
2023-02-03T17:31:19.197Z,16.525000000000002
2023-02-03T17:34:17.194Z,11.899999999999999
2023-02-03T17:37:16.801Z,11.350000000000001
2023-02-03T18:01:18.881Z,21.35
2023-02-03T18:04:16.150Z,17.425
2023-02-03T18:07:16.363Z,11.8125
2023-02-03T18:11:17.309Z,19.4125
2023-02-03T18:14:16.612Z,19.9625
2023-02-03T18:17:16.419Z,18.4
2023-02-03T18:21:15.675Z,16.549999999999997
2023-02-03T18:24:18.390Z,16.85
2023-02-03T18:27:18.216Z,11.225000000000001
2023-02-03T18:31:18.823Z,10.775
2023-02-03T18:34:16.770Z,27.162499999999998
2023-02-03T18:37:16.802Z,15.175
2023-02-03T18:41:18.107Z,14.1375
2023-02-03T18:44:16.262Z,11.3625
2023-02-03T18:47:16.220Z,17.2125
2023-02-03T18:51:18.510Z,12.0375
2023-02-03T18:54:16.771Z,13.5125
2023-02-03T18:57:16.769Z,21.7875
2023-02-03T19:01:22.631Z,18.9
2023-02-03T19:04:17.251Z,15.325000000000001
2023-02-03T19:07:17.350Z,15.4875
2023-02-03T19:11:16.537Z,17.3375
2023-02-03T19:14:18.229Z,13.05
2023-02-03T19:17:16.636Z,18.5625
2023-02-03T19:21:16.007Z,13.8625
2023-02-03T19:24:16.548Z,18.225
2023-02-03T19:27:16.270Z,23.3875
2023-02-03T19:31:16.884Z,19.325000000000003
2023-02-03T19:34:17.313Z,16.6125
2023-02-03T19:37:17.127Z,20.525
2023-02-03T19:41:15.730Z,18.2875
2023-02-03T19:44:16.206Z,15.3625
2023-02-03T19:47:16.214Z,17
2023-02-03T19:51:17.441Z,18
2023-02-03T19:54:16.968Z,20.65
2023-02-03T19:57:17.287Z,17.1375
2023-02-03T20:01:16.400Z,19.237499999999997
2023-02-03T20:04:16.699Z,12.2875
2023-02-03T20:07:16.954Z,19.95
2023-02-03T20:11:16.798Z,42.75
2023-02-03T20:14:18.504Z,23.325
2023-02-03T20:17:16.709Z,19.925
2023-02-03T20:21:15.865Z,16.2
2023-02-03T20:24:16.877Z,14.924999999999999
2023-02-03T20:27:18.111Z,16.2875
2023-02-03T20:31:16.519Z,18.65
2023-02-03T20:34:16.593Z,16.8875
2023-02-03T20:37:16.940Z,18.8125
2023-02-03T20:41:17.629Z,17.0125
2023-02-03T20:44:19.037Z,17.4875
2023-02-03T20:47:18.854Z,11.425
2023-02-03T20:51:18.235Z,12.775
2023-02-03T20:54:19.262Z,13.974999999999998
2023-02-03T20:57:18.954Z,18.35
2023-02-03T21:01:21.353Z,15.8875
2023-02-03T21:05:27.092Z,18
2023-02-03T21:07:18.648Z,34.075
2023-02-03T21:11:18.917Z,31.3875
2023-02-03T21:14:19.790Z,22.725
2023-02-03T21:17:19.595Z,14.5125
2023-02-03T21:21:18.350Z,17.5875
2023-02-03T21:24:23.898Z,15.2125
2023-02-03T21:27:23.168Z,18.487499999999997
2023-02-03T21:31:21.351Z,20.65
2023-02-03T21:34:24.368Z,27.1625
2023-02-03T21:37:38.270Z,19.4375
2023-02-03T21:41:18.356Z,25.1875
2023-02-03T21:44:26.070Z,16.200000000000003
2023-02-03T21:47:17.636Z,18.112499999999997
2023-02-03T21:51:18.501Z,24.6
2023-02-03T21:54:25.013Z,13.675
2023-02-03T21:57:17.959Z,21.487499999999997
2023-02-03T22:01:18.602Z,18.4625
2023-02-03T22:04:17.149Z,16.4125
2023-02-03T22:07:18.057Z,17.325000000000003
2023-02-03T22:11:18.702Z,15.774999999999999
2023-02-03T22:14:18.803Z,14.7375
2023-02-03T22:17:19.197Z,19.925
2023-02-03T22:21:16.958Z,25.1
2023-02-03T22:24:16.307Z,18.8375
2023-02-03T22:27:16.304Z,16.85
2023-02-03T22:31:17.621Z,17.8625
2023-02-03T22:34:17.523Z,16.4
2023-02-03T22:37:17.107Z,15.7625
2023-02-03T22:41:16.876Z,16.15
2023-02-03T22:44:18.554Z,11.600000000000001
2023-02-03T22:47:16.860Z,14.6875
2023-02-03T22:51:16.656Z,14.6875
2023-02-03T22:54:16.924Z,16.625
2023-02-03T22:57:16.875Z,24.275
2023-02-03T23:01:16.550Z,22.25
2023-02-03T23:04:17.196Z,18.512500000000003
2023-02-03T23:07:16.851Z,17.2
2023-02-03T23:11:16.477Z,13.337499999999999
2023-02-03T23:14:17.169Z,14.049999999999999
2023-02-03T23:17:17.244Z,15.175
2023-02-03T23:21:16.749Z,16.4625
2023-02-03T23:24:17.042Z,20.325000000000003
2023-02-03T23:27:16.952Z,12.625
2023-02-03T23:31:16.857Z,13.3625
2023-02-03T23:41:16.628Z,12.274999999999999
2023-02-03T23:44:16.909Z,15.2625
2023-02-03T23:47:16.900Z,15.399999999999999
2023-02-03T23:51:16.494Z,33.025000000000006
2023-02-03T23:54:17.014Z,26.462500000000002
2023-02-03T23:57:16.928Z,26.1375
